WetterOnline ( https://www.wetteronline.ch )

Wetter aktuell Sauerland (in 400m)

Aktuelles Wetter: Lüdenscheid (392m)

6-stündlich | Neueste Meldungen
Ortszeit Temperatur Wetter
So, 15.09. 8:00 11.2° C fast wolkenlos
So, 15.09. 2:00 9.5° C wolkenlos
Sa, 14.09. 20:00 14.8° C wolkig
Sa, 14.09. 14:00 19.3° C wolkenlos
Sa, 14.09. 8:00 7.4° C wolkenlos
Sa, 14.09. 2:00 10.1° C wolkenlos
Fr, 13.09. 20:00 16.3° C bewölkt
Fr, 13.09. 14:00 17.5° C bedeckt
Ortszeit Temperatur Wetter
So, 15.09. 12:00 19.5° C leicht bewölkt
So, 15.09. 11:50 19.5° C wolkig
So, 15.09. 11:40 19.5° C wolkig
So, 15.09. 11:30 18.9° C wolkig
So, 15.09. 11:20 18.9° C wolkig
So, 15.09. 11:10 18.3° C wolkig
So, 15.09. 11:00 18.1° C leicht bewölkt
So, 15.09. 10:30 17.1° C -
So, 15.09. 10:00 15.9° C -
So, 15.09. 9:30 14.7° C fast wolkenlos
So, 15.09. 9:00 13.4° C leicht bewölkt
Ortszeit Relative Feuchte Sichtweite
So, 15.09. 8:00 73% 40 km
So, 15.09. 2:00 85% 40 km
Sa, 14.09. 20:00 62% 35 km
Sa, 14.09. 14:00 37% 40 km
Sa, 14.09. 8:00 99% 8 km
Sa, 14.09. 2:00 89% 45 km
Fr, 13.09. 20:00 72% >70 km
Fr, 13.09. 14:00 86% 17 km
Ortszeit Relative Feuchte Sichtweite
So, 15.09. 12:00 44% 45 km
So, 15.09. 11:50 44% -
So, 15.09. 11:40 45% -
So, 15.09. 11:30 51% 50 km
So, 15.09. 11:20 51% -
So, 15.09. 11:10 52% -
So, 15.09. 11:00 53% 35 km
So, 15.09. 10:30 54% 45 km
So, 15.09. 10:00 59% 60 km
So, 15.09. 9:30 66% 50 km
So, 15.09. 9:00 70% >70 km
Ortszeit Niederschlagsmenge Niederschlagsart
So, 15.09. 8:00 0.0 l/m2 in 12 Std. -
So, 15.09. 2:00 0.0 l/m2 in 6 Std. -
Sa, 14.09. 20:00 0.0 l/m2 in 12 Std. -
Sa, 14.09. 14:00 0.0 l/m2 in 6 Std. -
Sa, 14.09. 8:00 0.0 l/m2 in 12 Std. -
Sa, 14.09. 2:00 0.0 l/m2 in 6 Std. -
Fr, 13.09. 20:00 0.3 l/m2 in 12 Std. Regen
Fr, 13.09. 14:00 0.3 l/m2 in 6 Std. Regen
Ortszeit Niederschlagsmenge Niederschlagsart
So, 15.09. 12:00 0.0 l/m2 in 1 Std. -
So, 15.09. 11:50 keine Meldung -
So, 15.09. 11:40 keine Meldung -
So, 15.09. 11:30 0.0 l/m2 in 1 Std. -
So, 15.09. 11:20 keine Meldung -
So, 15.09. 11:10 keine Meldung -
So, 15.09. 11:00 0.0 l/m2 in 1 Std. -
So, 15.09. 10:30 0.0 l/m2 in 1 Std. -
So, 15.09. 10:00 0.0 l/m2 in 1 Std. -
So, 15.09. 9:30 0.0 l/m2 in 1 Std. -
So, 15.09. 9:00 0.0 l/m2 in 1 Std. -
Ortszeit Stärke Spitze Richtung
km/h Bft. km/h Grad Sektor
So, 15.09. 8:00 6 1 11 280° W
So, 15.09. 2:00 4 1 7 70° O
Sa, 14.09. 20:00 4 1 25 60° NO
Sa, 14.09. 14:00 7 2 18 330° NW
Sa, 14.09. 8:00 4 1 14 100° O
Sa, 14.09. 2:00 6 1 20 90° O
Fr, 13.09. 20:00 2 1 26 10° N
Fr, 13.09. 14:00 14 3 22 280° W
Ortszeit Stärke Spitze Richtung
km/h Bft. km/h Grad Sektor
So, 15.09. 12:00 18 3 29 260° W
So, 15.09. 11:50 18 3 - 260° W
So, 15.09. 11:40 13 3 - 260° W
So, 15.09. 11:30 14 3 25 260° W
So, 15.09. 11:20 14 3 - 260° W
So, 15.09. 11:10 15 3 - 270° W
So, 15.09. 11:00 14 3 22 240° SW
So, 15.09. 10:30 11 2 14 250° W
So, 15.09. 10:00 9 2 15 260° W
So, 15.09. 9:30 9 2 13 270° W
So, 15.09. 9:00 7 2 11 260° W
Ortszeit Untergrenze Bedeckung Gattung
total tief tief mittel hoch
So, 15.09. 8:00 12000 m 1/8 0/8 - - -
So, 15.09. 2:00 - 0/8 0/8 - - -
Sa, 14.09. 20:00 12000 m 7/8 0/8 - - -
Sa, 14.09. 14:00 - 0/8 0/8 - - -
Sa, 14.09. 8:00 - 0/8 0/8 - - -
Sa, 14.09. 2:00 - 0/8 0/8 - - -
Fr, 13.09. 20:00 900 m 7/8 7/8 - - -
Fr, 13.09. 14:00 240 m 8/8 8/8 - - -
Ortszeit Bedeckungsgrad in Achtel und Wolkenuntergrenze
So, 15.09. 12:00 8(10500m) 8(12000m)
So, 15.09. 11:50 8(10500m) 8(12000m)
So, 15.09. 11:40 7(10500m) 8(12000m)
So, 15.09. 11:30 7(10500m) 8(12000m) 8(12000m)
So, 15.09. 11:20 7(10500m) 8(12000m) 8(12000m)
So, 15.09. 11:10 7(10500m) 8(10500m) 8(12000m)
So, 15.09. 11:00 5(10500m) 8(12000m)
So, 15.09. 10:30 -
So, 15.09. 10:00 -
So, 15.09. 9:30 2(10500m)
So, 15.09. 9:00 7(10500m)
Ortszeit Luftdruck NN (hPa) Tendenz (hPa in 3 Std.)
So, 15.09. 8:00 1025 - 0,7
So, 15.09. 2:00 1028 - 1,9
Sa, 14.09. 20:00 1030 - 0,5
Sa, 14.09. 14:00 1032 - 1,6
Sa, 14.09. 8:00 1035 - 0,3
Sa, 14.09. 2:00 1035 0,0
Fr, 13.09. 20:00 1033 + 0,6
Fr, 13.09. 14:00 1032 + 0,6
Ortszeit Luftdruck NN (hPa) Tendenz (hPa in 3 Std.)
So, 15.09. 12:00 1024 - 0,3
So, 15.09. 11:50 1024 keine Meldung
So, 15.09. 11:40 1024 keine Meldung
So, 15.09. 11:30 1024 - 0,4
So, 15.09. 11:20 1024 keine Meldung
So, 15.09. 11:10 1024 keine Meldung
So, 15.09. 11:00 1024 - 0,6
So, 15.09. 10:30 1024 - 0,3
So, 15.09. 10:00 1024 - 0,2
So, 15.09. 9:30 1025 + 0,2
So, 15.09. 9:00 1025 - 0,3
Ortszeit Schneehöhe (cm)
So, 15.09. 8:00 -
So, 15.09. 2:00 -
Sa, 14.09. 20:00 -
Sa, 14.09. 14:00 -
Sa, 14.09. 8:00 -
Sa, 14.09. 2:00 -
Fr, 13.09. 20:00 -
Fr, 13.09. 14:00 -
Ortszeit Schneehöhe (cm)
So, 15.09. 12:00 -
So, 15.09. 11:50 -
So, 15.09. 11:40 -
So, 15.09. 11:30 -
So, 15.09. 11:20 -
So, 15.09. 11:10 -
So, 15.09. 11:00 -
So, 15.09. 10:30 -
So, 15.09. 10:00 -
So, 15.09. 9:30 -
So, 15.09. 9:00 -
Link zu dieser Seite / Seite empfehlen

Das Wetter in ...